Nearby Weather Observations


KTIP - Rantoul, Illinois, USA
Distance from station: ENE 12mi, 19km
Updated: Thu, 19-Apr-2018 9:55pm CDT
Clear
Clear
 Wind from NNE
Wind: NNE 5 mph , 7 km/h
Temperature: 43°F , 6°C
Wind Chill: 40°F , 4°C
Dew Point: 32°F , 0°C
Humidity: 66%
Barometer: 30.42 inHg , 1030.1 hPa
Clouds: Clear
Visibility: 10 miles , 16 km
2018/04/20 02:55 KTIP 200255Z AUTO 03004KT 10SM CLR 06/00 A3042 RMK AO2 T00600001
KCMI - Champaign/Urbana, Illinois, USA
Distance from station: SSE 14mi, 22km
Updated: Thu, 19-Apr-2018 9:53pm CDT
Clear
Clear
 Wind from N
Wind: N 8 mph , 13 km/h
Temperature: 39°F , 4°C
Wind Chill: 33°F , 1°C
Dew Point: 28°F , -2°C
Humidity: 65%
Barometer: 30.41 inHg , 1029.8 hPa
Clouds: Clear
Visibility: 10 miles , 16 km
2018/04/20 02:53 KCMI 200253Z 01007KT 10SM CLR 04/M02 A3041 RMK AO2 SLP304 T00391017 51011
 
KBMI - Bloomington/Norm, Illinois, USA
Distance from station: WNW 34mi, 55km
Updated: Thu, 19-Apr-2018 10:02pm CDT
Clear
Clear
 Wind from N
Wind: N 8 mph , 13 km/h
Temperature: 43°F , 6°C
Wind Chill: 38°F , 3°C
Dew Point: 28°F , -2°C
Humidity: 57%
Barometer: 30.43 inHg , 1030.5 hPa
Clouds: Clear
Visibility: 10 miles , 16 km
2018/04/20 03:02 KBMI 200302Z AUTO 35007KT 10SM CLR 06/M02 A3043 RMK AO2 $
KDEC - Decatur, Illinois, USA
Distance from station: SW 37mi, 60km
Updated: Thu, 19-Apr-2018 9:54pm CDT
Clear
Clear
 Wind from N
Wind: N 8 mph , 13 km/h
Temperature: 43°F , 6°C
Wind Chill: 38°F , 3°C
Dew Point: 28°F , -2°C
Humidity: 57%
Barometer: 30.41 inHg , 1029.8 hPa
Clouds: Clear
Visibility: 10 miles , 16 km
2018/04/20 02:54 KDEC 200254Z 01007KT 10SM CLR 06/M02 A3041 RMK AO2 SLP304 T00611017 51010
 
KDNV - Danville, Illinois, USA
Distance from station: E 40mi, 65km
Updated: Thu, 19-Apr-2018 9:55pm CDT
Clear
Clear
 Wind from NNE
Wind: NNE 6 mph , 9 km/h
Temperature: 36°F , 2°C
Wind Chill: 31°F , -1°C
Dew Point: 25°F , -4°C
Humidity: 65%
Barometer: 30.40 inHg , 1029.5 hPa
Clouds: Clear
Visibility: 10 miles , 16 km
2018/04/20 02:55 KDNV 200255Z AUTO 03005KT 10SM CLR 02/M04 A3040 RMK AO2 T00221040
KAAA - Lincoln, Illinois, USA
Distance from station: W 52mi, 83km
Updated: Thu, 19-Apr-2018 9:55pm CDT
Clear
Clear
 Wind from N
Wind: N 5 mph , 7 km/h
Temperature: 45°F , 7°C
Wind Chill: 42°F , 6°C
Dew Point: 30°F , -1°C
Humidity: 57%
Barometer: 30.44 inHg , 1030.8 hPa
Clouds: Clear
Visibility: 10 miles , 16 km
2018/04/20 02:55 KAAA 200255Z AUTO 36004KT 10SM CLR 07/M01 A3044 RMK AO2 T00691009
 
KMTO - Mattoon/Charlest, Illinois, USA
Distance from station: S 52mi, 84km
Updated: Thu, 19-Apr-2018 9:53pm CDT
Clear
Clear
 Wind from N
Wind: N 7 mph , 11 km/h
Temperature: 39°F , 4°C
Wind Chill: 34°F , 1°C
Dew Point: 30°F , -1°C
Humidity: 70%
Barometer: 30.39 inHg , 1029.1 hPa
Clouds: Clear
Visibility: 10 miles , 16 km
2018/04/20 02:53 KMTO 200253Z AUTO 35006KT 10SM CLR 04/M01 A3039 RMK AO2 SLP297 T00441011 51010
KSPI - Springfield, Illinois, USA
Distance from station: WSW 74mi, 120km
Updated: Thu, 19-Apr-2018 9:52pm CDT
Clear
Clear
 Wind from N
Wind: N 6 mph , 9 km/h
Temperature: 43°F , 6°C
Wind Chill: 39°F , 4°C
Dew Point: 27°F , -3°C
Humidity: 53%
Barometer: 30.43 inHg , 1030.5 hPa
Clouds: Clear
Visibility: 10 miles , 16 km
2018/04/20 02:52 KSPI 200252Z AUTO 01005KT 10SM CLR 06/M03 A3043 RMK AO2 SLP308 T00611028 51010
 
KLAF - Lafayette, Indiana, USA
Distance from station: E 76mi, 123km
Updated: Thu, 19-Apr-2018 9:54pm CDT
Clear
Clear
 Wind from N
Wind: N 6 mph , 9 km/h
Temperature: 37°F , 3°C
Wind Chill: 32°F , 0°C
Dew Point: 19°F , -7°C
Humidity: 48%
Barometer: 30.41 inHg , 1029.8 hPa
Clouds: Clear
Visibility: 10 miles , 16 km
2018/04/20 02:54 KLAF 200254Z AUTO 36005KT 10SM CLR 03/M07 A3041 RMK AO2 SLP302 T00331072 51014
KPIA - Peoria, Illinois, USA
Distance from station: WNW 76mi, 123km
Updated: Thu, 19-Apr-2018 9:54pm CDT
Clear
Clear
 Wind from N
Wind: N 3 mph , 6 km/h
Temperature: 46°F , 8°C
Dew Point: 27°F , -3°C
Humidity: 46%
Barometer: 30.44 inHg , 1030.8 hPa
Clouds: Clear
Visibility: 10 miles , 16 km
2018/04/20 02:54 KPIA 200254Z 01003KT 10SM CLR 08/M03 A3044 RMK AO2 SLP313 T00781028 53011
 
KHUF - Terre Haute, Indiana, USA
Distance from station: SE 77mi, 124km
Updated: Thu, 19-Apr-2018 9:53pm CDT
Clear
Clear
 Wind from NNE
Wind: NNE 9 mph , 15 km/h
Temperature: 45°F , 7°C
Wind Chill: 40°F , 4°C
Dew Point: 21°F , -6°C
Humidity: 39%
Barometer: 30.40 inHg , 1029.5 hPa
Clouds: Clear
Visibility: 10 miles , 16 km
2018/04/20 02:53 KHUF 200253Z 02008KT 10SM CLR 07/M06 A3040 RMK AO2 SLP298 T00721061 52015
K1H2 - Effingham, Illinois, USA
Distance from station: S 80mi, 129km
Updated: Thu, 19-Apr-2018 9:55pm CDT
Clear
Clear
 Wind from N
Wind: N 3 mph , 6 km/h
Temperature: 46°F , 8°C
Dew Point: 30°F , -1°C
Humidity: 53%
Barometer: 30.42 inHg , 1030.1 hPa
Clouds: Clear
Visibility: 10 miles , 16 km
2018/04/20 02:55 K1H2 200255Z AUTO 35003KT 10SM CLR 08/M01 A3042 RMK AO2 T00831006
 
KIND - Indianapolis, Indiana, USA
Distance from station: ESE 117mi, 133km
Updated: Thu, 19-Apr-2018 9:54pm CDT
Clear
Clear
 Wind from NNW
Wind: NNW 14 mph , 22 km/h
Temperature: 41°F , 5°C
Wind Chill: 33°F , 1°C
Dew Point: 18°F , -8°C
Humidity: 39%
Barometer: 30.38 inHg , 1028.8 hPa
Clouds: Clear
Visibility: 10 miles , 16 km
2018/04/20 02:54 KIND 200254Z 34012KT 10SM CLR 05/M08 A3038 RMK AO2 SLP293 T00501078 51017
KORD - Chicago O'hare, Illinois, USA
Distance from station: N 126mi, 203km
Updated: Thu, 19-Apr-2018 9:51pm CDT
Clear
Clear
 Wind from WNW
Wind: WNW 6 mph , 9 km/h
Temperature: 43°F , 6°C
Wind Chill: 39°F , 4°C
Dew Point: 25°F , -4°C
Humidity: 49%
Barometer: 30.42 inHg , 1030.1 hPa
Clouds: Clear
Visibility: 10 miles , 16 km
2018/04/20 02:51 KORD 200251Z 29005KT 10SM CLR 06/M04 A3042 RMK AO2 SLP306 T00561044 51009
 
KSTL - St. Louis, Missouri, USA
Distance from station: SW 150mi, 185km
Updated: Thu, 19-Apr-2018 9:51pm CDT
Few Clouds
Few Clouds
 Wind from NE
Wind: NE 5 mph , 7 km/h
Temperature: 48°F , 9°C
Wind Chill: 46°F , 8°C
Dew Point: 28°F , -2°C
Humidity: 46%
Barometer: 30.42 inHg , 1030.1 hPa
Clouds: Few Clouds
Visibility: 10 miles , 16 km
Cloud details: Few Clouds 25000 ft
2018/04/20 02:51 KSTL 200251Z 05004KT 10SM FEW250 09/M02 A3042 RMK AO2 SLP305 T00891017 53008